createdAt,value
2019-01-15T00:00:42.432Z,4.73
2019-01-15T00:03:09.705Z,10.80
2019-01-15T00:05:36.983Z,7.73
2019-01-15T00:08:04.315Z,8.07
2019-01-15T00:10:31.582Z,4.80
2019-01-15T00:12:58.858Z,9.70
2019-01-15T00:15:26.115Z,5.53
2019-01-15T00:17:53.394Z,10.17
2019-01-15T00:20:20.646Z,7.67
2019-01-15T00:22:47.937Z,2.77
2019-01-15T00:25:15.202Z,3.33
2019-01-15T00:27:42.458Z,5.87
2019-01-15T00:30:14.170Z,7.03
2019-01-15T00:32:41.433Z,6.43
2019-01-15T00:35:10.254Z,5.97
2019-01-15T00:37:37.570Z,2.70
2019-01-15T00:40:09.176Z,5.30
2019-01-15T00:42:36.418Z,6.70
2019-01-15T00:45:05.236Z,4.17
2019-01-15T00:47:32.480Z,12.40
2019-01-15T00:49:59.750Z,4.53
2019-01-15T00:52:27.017Z,6.83
2019-01-15T00:54:54.286Z,4.47
2019-01-15T00:57:21.574Z,5.17
2019-01-15T00:59:48.838Z,7.47
2019-01-15T01:02:16.116Z,5.60
2019-01-15T01:04:43.374Z,6.67
2019-01-15T01:07:10.630Z,4.53
2019-01-15T01:09:37.893Z,5.00
2019-01-15T01:12:05.247Z,5.70
2019-01-15T01:14:32.513Z,4.67
2019-01-15T01:16:59.778Z,7.37
2019-01-15T01:19:27.113Z,7.97
2019-01-15T01:21:54.366Z,3.23
2019-01-15T01:24:21.617Z,8.70
2019-01-15T01:26:48.878Z,8.53
2019-01-15T01:29:16.121Z,8.27
2019-01-15T01:31:43.389Z,8.00
2019-01-15T01:34:10.646Z,8.63
2019-01-15T01:36:37.926Z,5.60
2019-01-15T01:39:08.606Z,5.87
2019-01-15T01:41:35.948Z,4.00
2019-01-15T01:44:03.216Z,11.87
2019-01-15T01:46:30.464Z,7.13
2019-01-15T01:48:57.826Z,11.60
2019-01-15T01:51:25.082Z,9.00
2019-01-15T01:53:52.366Z,15.70
2019-01-15T01:56:19.715Z,9.70
2019-01-15T01:58:47.003Z,12.00
2019-01-15T02:01:14.246Z,13.63
2019-01-15T02:03:41.533Z,13.43
2019-01-15T02:06:08.774Z,16.30
2019-01-15T02:08:36.065Z,15.93
2019-01-15T02:11:03.361Z,12.83
2019-01-15T02:13:30.619Z,13.23
2019-01-15T02:15:57.896Z,14.73
2019-01-15T02:18:25.145Z,13.77
2019-01-15T02:20:52.432Z,18.73
2019-01-15T02:23:19.687Z,16.53
2019-01-15T02:25:46.969Z,20.43
2019-01-15T02:28:14.314Z,21.20
2019-01-15T02:30:41.573Z,22.90
2019-01-15T02:33:08.865Z,17.27
2019-01-15T02:35:36.111Z,20.83
2019-01-15T02:38:03.401Z,22.10
2019-01-15T02:40:30.656Z,20.80
2019-01-15T02:42:57.929Z,27.27
2019-01-15T02:45:25.774Z,29.60
2019-01-15T02:47:53.035Z,27.07
2019-01-15T02:50:21.834Z,21.50
2019-01-15T02:52:49.779Z,26.07
2019-01-15T02:55:17.038Z,27.13
2019-01-15T02:57:44.321Z,21.07
2019-01-15T03:00:16.144Z,17.30
2019-01-15T03:02:43.433Z,22.93
2019-01-15T03:05:12.299Z,20.70
2019-01-15T03:07:39.550Z,23.47
2019-01-15T03:10:11.407Z,22.67
2019-01-15T03:12:40.344Z,18.80
2019-01-15T03:15:09.142Z,18.97
2019-01-15T03:17:36.398Z,13.70
2019-01-15T03:20:05.222Z,16.73
2019-01-15T03:22:32.506Z,19.90
2019-01-15T03:24:59.793Z,16.60
2019-01-15T03:27:27.053Z,13.77
2019-01-15T03:29:54.330Z,20.47
2019-01-15T03:32:21.582Z,11.37
2019-01-15T03:34:48.875Z,22.03
2019-01-15T03:37:16.115Z,19.60
2019-01-15T03:39:43.389Z,17.30
2019-01-15T03:42:10.622Z,20.30
2019-01-15T03:44:37.903Z,13.27
2019-01-15T03:47:05.198Z,21.43
2019-01-15T03:49:32.470Z,20.70
2019-01-15T03:51:59.719Z,14.17
2019-01-15T03:54:27.000Z,26.27
2019-01-15T03:56:54.270Z,16.60
2019-01-15T03:59:21.532Z,21.43
2019-01-15T04:01:48.767Z,20.20
2019-01-15T04:04:16.063Z,18.87
2019-01-15T04:06:43.347Z,17.10
2019-01-15T04:09:10.623Z,20.17
2019-01-15T04:11:37.935Z,16.17
2019-01-15T04:14:05.206Z,18.97
2019-01-15T04:16:32.467Z,22.70
2019-01-15T04:18:59.775Z,19.93
2019-01-15T04:21:27.064Z,25.23
2019-01-15T04:23:54.341Z,21.50
2019-01-15T04:26:21.610Z,23.10
2019-01-15T04:28:48.846Z,16.37
2019-01-15T04:31:16.163Z,18.83
2019-01-15T04:33:43.433Z,18.10
2019-01-15T04:36:10.706Z,21.63
2019-01-15T04:38:37.991Z,17.80
2019-01-15T04:41:08.167Z,14.60
2019-01-15T04:43:35.436Z,20.87
2019-01-15T04:46:02.679Z,16.47
2019-01-15T04:48:29.918Z,17.03
2019-01-15T04:50:57.191Z,21.03
2019-01-15T04:53:24.442Z,20.10
2019-01-15T04:55:51.674Z,21.60
2019-01-15T04:58:18.958Z,24.23
2019-01-15T05:00:46.198Z,23.63
2019-01-15T05:03:13.531Z,14.83
2019-01-15T05:05:40.794Z,21.83
2019-01-15T05:08:08.083Z,18.70
2019-01-15T05:10:35.346Z,34.03
2019-01-15T05:13:02.628Z,18.03
2019-01-15T05:15:29.957Z,29.30
2019-01-15T05:17:57.230Z,18.07
2019-01-15T05:20:24.492Z,20.07
2019-01-15T05:22:51.769Z,26.33
2019-01-15T05:25:20.511Z,21.27
2019-01-15T05:27:47.802Z,17.83
2019-01-15T05:30:28.475Z,18.73
2019-01-15T05:32:55.723Z,23.47
2019-01-15T05:35:23.006Z,22.33
2019-01-15T05:37:50.282Z,25.80
2019-01-15T05:40:19.117Z,20.57
2019-01-15T05:42:46.380Z,22.00
2019-01-15T05:45:16.847Z,19.83
2019-01-15T05:47:45.761Z,12.43
2019-01-15T05:50:14.855Z,26.43
2019-01-15T05:52:42.118Z,17.57
2019-01-15T05:55:09.446Z,22.60
2019-01-15T05:57:36.722Z,17.87
2019-01-15T06:00:05.578Z,19.93
2019-01-15T06:02:32.857Z,21.60
2019-01-15T06:05:00.184Z,21.70
2019-01-15T06:07:33.634Z,31.30
2019-01-15T06:09:56.458Z,16.97
2019-01-15T06:12:23.750Z,22.83
2019-01-15T06:14:51.012Z,20.23
2019-01-15T06:17:18.255Z,26.87
2019-01-15T06:19:45.547Z,20.57
2019-01-15T06:22:12.808Z,16.33
2019-01-15T06:24:40.073Z,13.80
2019-01-15T06:27:07.437Z,18.07
2019-01-15T06:29:34.672Z,19.63
2019-01-15T06:32:01.943Z,11.33
2019-01-15T06:34:29.238Z,20.37
2019-01-15T06:36:56.513Z,16.93
2019-01-15T06:39:23.770Z,11.90
2019-01-15T06:41:51.089Z,13.50
2019-01-15T06:44:18.359Z,14.30
2019-01-15T06:46:45.610Z,17.13
2019-01-15T06:49:13.739Z,13.17
2019-01-15T06:51:41.014Z,17.03
2019-01-15T06:54:08.289Z,14.37
2019-01-15T06:56:35.568Z,15.43
2019-01-15T06:59:02.831Z,21.50
2019-01-15T07:01:30.110Z,16.17
2019-01-15T07:03:57.373Z,13.10
2019-01-15T07:06:24.642Z,16.77
2019-01-15T07:08:51.899Z,15.80
2019-01-15T07:11:19.176Z,11.03
2019-01-15T07:13:48.052Z,13.77
2019-01-15T07:16:16.795Z,18.17
2019-01-15T07:18:44.079Z,14.13
2019-01-15T07:21:11.338Z,16.17
2019-01-15T07:23:38.603Z,20.97
2019-01-15T07:26:05.866Z,17.37
2019-01-15T07:28:33.152Z,15.03
2019-01-15T07:31:00.454Z,15.07
2019-01-15T07:33:27.757Z,17.03
2019-01-15T07:35:55.099Z,12.47
2019-01-15T07:38:22.377Z,10.97
2019-01-15T07:40:49.738Z,17.83
2019-01-15T07:43:17.006Z,15.70
2019-01-15T07:45:44.265Z,27.13
2019-01-15T07:48:11.555Z,15.37
2019-01-15T07:50:38.798Z,16.83
2019-01-15T07:53:06.151Z,16.43
2019-01-15T07:55:33.386Z,12.23
2019-01-15T07:58:00.659Z,16.30
2019-01-15T08:00:27.942Z,16.97
2019-01-15T08:02:56.982Z,13.27
2019-01-15T08:05:25.766Z,17.10
2019-01-15T08:07:53.167Z,8.47
2019-01-15T08:10:23.118Z,15.43
2019-01-15T08:12:51.927Z,21.43
2019-01-15T08:15:25.595Z,24.97
2019-01-15T08:17:52.854Z,19.63
2019-01-15T08:20:21.654Z,20.87
2019-01-15T08:22:50.453Z,22.37
2019-01-15T08:25:17.711Z,18.37
2019-01-15T08:27:44.960Z,14.77
2019-01-15T08:30:22.694Z,13.90
2019-01-15T08:32:49.968Z,11.90
2019-01-15T08:35:18.770Z,22.30
2019-01-15T08:37:46.030Z,17.30
2019-01-15T08:40:14.148Z,12.63
2019-01-15T08:42:41.514Z,22.33
2019-01-15T08:45:10.607Z,31.40
2019-01-15T08:47:39.574Z,17.80
2019-01-15T08:50:11.103Z,11.00
2019-01-15T08:52:38.382Z,11.47
2019-01-15T08:55:06.311Z,9.57
2019-01-15T08:57:33.635Z,12.57
2019-01-15T09:00:02.164Z,19.00
2019-01-15T09:02:29.862Z,17.13
2019-01-15T09:04:57.127Z,16.17
2019-01-15T09:07:24.390Z,13.00
2019-01-15T09:09:51.651Z,11.90
2019-01-15T09:12:18.922Z,10.40
2019-01-15T09:14:46.174Z,19.00
2019-01-15T09:17:13.487Z,15.63
2019-01-15T09:19:40.774Z,21.13
2019-01-15T09:22:08.040Z,10.80
2019-01-15T09:24:35.415Z,18.90
2019-01-15T09:27:04.315Z,20.20
2019-01-15T09:29:31.579Z,11.60
2019-01-15T09:31:58.843Z,12.17
2019-01-15T09:34:26.105Z,11.27
2019-01-15T09:36:53.363Z,17.60
2019-01-15T09:39:20.623Z,19.53
2019-01-15T09:41:49.531Z,10.13
2019-01-15T09:44:16.804Z,12.43
2019-01-15T09:46:44.134Z,14.83
2019-01-15T09:49:11.419Z,22.17
2019-01-15T09:51:38.707Z,13.13
2019-01-15T09:54:05.970Z,15.80
2019-01-15T09:56:33.242Z,13.00
2019-01-15T09:59:00.484Z,12.63
2019-01-15T10:01:27.784Z,20.00
2019-01-15T10:03:55.687Z,13.23
2019-01-15T10:06:22.970Z,13.30
2019-01-15T10:08:50.242Z,10.77
2019-01-15T10:11:17.494Z,15.30
2019-01-15T10:13:44.742Z,17.57
2019-01-15T10:16:12.011Z,8.07
2019-01-15T10:18:39.254Z,13.17
2019-01-15T10:21:07.714Z,12.20
2019-01-15T10:23:34.974Z,10.07
2019-01-15T10:26:02.250Z,17.07
2019-01-15T10:28:29.531Z,13.37
2019-01-15T10:31:15.159Z,11.10
2019-01-15T10:33:44.803Z,17.77
2019-01-15T10:36:13.154Z,11.20
2019-01-15T10:38:40.422Z,19.40
2019-01-15T10:41:07.764Z,9.00
2019-01-15T10:43:35.025Z,14.43
2019-01-15T10:46:03.844Z,13.10
2019-01-15T10:48:31.102Z,14.13
2019-01-15T10:50:58.453Z,21.67
2019-01-15T10:53:25.701Z,16.73
2019-01-15T10:55:52.967Z,11.30
2019-01-15T10:58:21.790Z,18.17
2019-01-15T11:00:49.076Z,14.67
2019-01-15T11:03:16.350Z,16.53
2019-01-15T11:05:43.717Z,17.13
2019-01-15T11:08:10.955Z,16.50
2019-01-15T11:10:39.715Z,21.77
2019-01-15T11:13:07.222Z,14.97
2019-01-15T11:15:34.479Z,15.90
2019-01-15T11:18:01.750Z,9.60
2019-01-15T11:20:29.194Z,18.47
2019-01-15T11:22:56.454Z,11.70
2019-01-15T11:25:23.707Z,11.20
2019-01-15T11:27:50.987Z,18.12
2019-01-15T11:30:18.356Z,14.10
2019-01-15T11:32:45.607Z,15.10
2019-01-15T11:35:14.418Z,14.60
2019-01-15T11:37:41.679Z,10.57
2019-01-15T11:40:10.505Z,13.07
2019-01-15T11:42:39.391Z,13.50
2019-01-15T11:45:08.154Z,10.17
2019-01-15T11:47:36.954Z,16.30
2019-01-15T11:50:06.622Z,12.53
2019-01-15T11:52:34.396Z,13.70
2019-01-15T11:55:01.679Z,14.03
2019-01-15T11:57:29.020Z,14.63
2019-01-15T11:59:56.289Z,16.07
2019-01-15T12:02:25.272Z,17.77
2019-01-15T12:05:10.471Z,15.00
2019-01-15T12:07:39.390Z,10.17
2019-01-15T12:10:21.831Z,13.20
2019-01-15T12:12:57.287Z,14.77
2019-01-15T12:15:26.205Z,19.90
2019-01-15T12:17:58.079Z,14.33
2019-01-15T12:20:42.367Z,15.57
2019-01-15T12:23:17.230Z,15.73
2019-01-15T12:25:52.017Z,8.67
2019-01-15T12:28:20.938Z,13.53
2019-01-15T12:31:05.394Z,12.10
2019-01-15T12:33:40.439Z,12.37
2019-01-15T12:36:26.318Z,10.63
2019-01-15T12:38:58.113Z,11.57
2019-01-15T12:41:27.011Z,10.90
2019-01-15T12:44:01.986Z,16.70
2019-01-15T12:46:36.838Z,15.90
2019-01-15T12:49:16.874Z,17.90
2019-01-15T12:52:00.958Z,14.00
2019-01-15T12:54:29.869Z,12.40
2019-01-15T12:56:58.796Z,12.47
2019-01-15T12:59:42.574Z,11.97
2019-01-15T13:02:11.463Z,8.10
2019-01-15T13:04:52.286Z,14.73
2019-01-15T13:07:21.173Z,11.33
2019-01-15T13:10:02.879Z,15.73
2019-01-15T13:12:50.994Z,15.27
2019-01-15T13:15:34.293Z,11.38
2019-01-15T13:17:59.473Z,10.30
2019-01-15T13:20:43.378Z,11.83
2019-01-15T13:23:12.491Z,15.13
2019-01-15T13:25:53.361Z,12.10
2019-01-15T13:28:44.962Z,12.63
2019-01-15T13:31:13.874Z,11.67
2019-01-15T13:33:59.178Z,13.67
2019-01-15T13:36:37.719Z,15.60
2019-01-15T13:39:08.223Z,12.13
2019-01-15T13:41:39.568Z,13.23
2019-01-15T13:44:26.110Z,10.33
2019-01-15T13:47:14.544Z,8.57
2019-01-15T13:49:52.038Z,12.93
2019-01-15T13:52:23.737Z,15.67
2019-01-15T13:55:08.964Z,4.67
2019-01-15T13:57:43.694Z,10.23
2019-01-15T14:00:32.118Z,16.17
2019-01-15T14:03:13.063Z,13.87
2019-01-15T14:05:59.880Z,12.77
2019-01-15T14:08:28.768Z,19.40
2019-01-15T14:11:09.731Z,12.27
2019-01-15T14:13:50.710Z,12.90
2019-01-15T14:16:28.790Z,16.73
2019-01-15T14:18:57.690Z,13.83
2019-01-15T14:21:26.612Z,8.03
2019-01-15T14:23:58.456Z,16.53
2019-01-15T14:26:44.068Z,16.43
2019-01-15T14:29:16.115Z,12.47
2019-01-15T14:32:04.726Z,15.97
2019-01-15T14:34:39.623Z,14.93
2019-01-15T14:37:11.788Z,8.57
2019-01-15T14:39:49.510Z,7.80
2019-01-15T14:42:36.722Z,9.60
2019-01-15T14:45:25.281Z,20.47
2019-01-15T14:47:57.083Z,11.03
2019-01-15T14:50:31.971Z,14.90
2019-01-15T14:53:16.000Z,13.40
2019-01-15T14:56:01.042Z,13.23
2019-01-15T14:58:38.899Z,11.20
2019-01-15T15:01:22.758Z,22.77
2019-01-15T15:03:51.672Z,13.17
2019-01-15T15:06:23.619Z,8.93
2019-01-15T15:09:12.815Z,17.77
2019-01-15T15:11:59.638Z,14.50
2019-01-15T15:14:38.305Z,12.70
2019-01-15T15:17:13.173Z,12.43
2019-01-15T15:19:51.322Z,10.97
2019-01-15T15:22:25.966Z,16.93
2019-01-15T15:24:57.968Z,12.83
2019-01-15T15:27:26.869Z,16.83
2019-01-15T15:29:55.830Z,14.87
2019-01-15T15:32:24.754Z,17.20
2019-01-15T15:35:02.800Z,14.67
2019-01-15T15:37:31.746Z,12.37
2019-01-15T15:40:00.631Z,14.40
2019-01-15T15:42:46.540Z,12.20
2019-01-15T15:45:17.994Z,19.03
2019-01-15T15:47:46.922Z,12.30
2019-01-15T15:50:35.221Z,16.70
2019-01-15T15:53:10.053Z,17.23
2019-01-15T15:55:38.973Z,10.97
2019-01-15T15:58:18.322Z,11.13
2019-01-15T16:01:05.285Z,16.83
2019-01-15T16:03:50.174Z,13.17
2019-01-15T16:06:19.098Z,15.33
2019-01-15T16:09:06.359Z,11.33
2019-01-15T16:11:41.298Z,15.13
2019-01-15T16:14:13.042Z,17.90
2019-01-15T16:16:58.334Z,17.07
2019-01-15T16:19:29.658Z,12.23
2019-01-15T16:21:58.613Z,21.53
2019-01-15T16:24:43.754Z,14.60
2019-01-15T16:27:28.822Z,14.47
2019-01-15T16:30:12.686Z,15.10
2019-01-15T16:32:56.518Z,18.20
2019-01-15T16:35:34.463Z,23.27
2019-01-15T16:38:09.478Z,19.57
2019-01-15T16:40:54.883Z,13.97
2019-01-15T16:43:23.789Z,16.13
2019-01-15T16:45:58.944Z,23.07
2019-01-15T16:48:30.508Z,15.83
2019-01-15T16:51:04.975Z,14.37
2019-01-15T16:53:36.577Z,11.50
2019-01-15T16:56:08.352Z,22.07
2019-01-15T16:58:37.240Z,17.97
2019-01-15T17:01:22.105Z,22.97
2019-01-15T17:04:09.030Z,15.40
2019-01-15T17:06:54.130Z,21.27
2019-01-15T17:09:28.962Z,17.00
2019-01-15T17:12:14.304Z,9.87
2019-01-15T17:14:58.065Z,15.17
2019-01-15T17:17:43.728Z,15.50
2019-01-15T17:20:30.541Z,14.87
2019-01-15T17:23:08.190Z,20.53
2019-01-15T17:25:37.091Z,20.77
2019-01-15T17:28:19.539Z,17.47
2019-01-15T17:31:04.938Z,17.60
2019-01-15T17:33:53.691Z,20.37
2019-01-15T17:36:25.258Z,19.60
2019-01-15T17:38:57.114Z,17.20
2019-01-15T17:41:41.048Z,22.47
2019-01-15T17:44:22.663Z,18.80
2019-01-15T17:46:54.703Z,18.20
2019-01-15T17:49:26.574Z,22.57
2019-01-15T17:52:13.406Z,16.97
2019-01-15T17:54:45.170Z,17.83
2019-01-15T17:57:30.282Z,20.77
2019-01-15T17:59:59.199Z,21.47
2019-01-15T18:02:34.212Z,20.37
2019-01-15T18:05:05.839Z,14.23
2019-01-15T18:07:34.749Z,21.13
2019-01-15T18:10:15.622Z,17.47
2019-01-15T18:12:50.350Z,31.20
2019-01-15T18:15:25.222Z,17.17
2019-01-15T18:18:10.704Z,22.43
2019-01-15T18:20:42.226Z,27.30
2019-01-15T18:23:13.858Z,20.20
2019-01-15T18:25:42.739Z,13.20
2019-01-15T18:28:11.690Z,20.17
2019-01-15T18:30:43.502Z,24.57
2019-01-15T18:33:30.851Z,37.53
2019-01-15T18:36:02.518Z,27.30
2019-01-15T18:38:37.242Z,22.63
2019-01-15T18:41:25.692Z,28.70
2019-01-15T18:44:03.665Z,20.07
2019-01-15T18:46:47.516Z,30.93
2019-01-15T18:49:18.952Z,24.97
2019-01-15T18:51:50.263Z,31.03
2019-01-15T18:54:37.458Z,25.43
2019-01-15T18:57:27.195Z,23.53
2019-01-15T18:59:58.824Z,24.03
2019-01-15T19:02:39.746Z,27.53
2019-01-15T19:05:14.443Z,28.30
2019-01-15T19:07:46.010Z,17.83
2019-01-15T19:10:31.340Z,34.23
2019-01-15T19:13:06.214Z,26.70
2019-01-15T19:15:41.038Z,27.10
2019-01-15T19:18:09.935Z,25.47
2019-01-15T19:20:46.082Z,26.00
2019-01-15T19:23:29.991Z,27.53
2019-01-15T19:26:04.738Z,19.00
2019-01-15T19:28:40.522Z,22.70
2019-01-15T19:31:15.133Z,24.10
2019-01-15T19:33:47.010Z,23.93
2019-01-15T19:36:31.148Z,15.47
2019-01-15T19:39:15.262Z,19.50
2019-01-15T19:41:44.166Z,19.73
2019-01-15T19:44:29.618Z,23.57
2019-01-15T19:46:58.532Z,17.73
2019-01-15T19:49:27.464Z,19.97
2019-01-15T19:51:59.305Z,18.43
2019-01-15T19:54:39.864Z,30.73
2019-01-15T19:57:11.528Z,23.80
2019-01-15T20:00:05.198Z,28.00
2019-01-15T20:02:34.130Z,28.50
2019-01-15T20:05:14.962Z,24.07
2019-01-15T20:07:43.882Z,21.00
2019-01-15T20:10:27.071Z,22.17
2019-01-15T20:13:06.220Z,19.97
2019-01-15T20:15:35.179Z,30.10
2019-01-15T20:18:15.983Z,22.43
2019-01-15T20:20:44.872Z,24.10
2019-01-15T20:23:30.146Z,19.37
2019-01-15T20:26:15.595Z,24.70
2019-01-15T20:28:47.198Z,23.13
2019-01-15T20:31:18.811Z,17.83
2019-01-15T20:33:50.855Z,23.70
2019-01-15T20:36:19.783Z,28.43
2019-01-15T20:38:57.540Z,31.60
2019-01-15T20:41:42.758Z,23.73
2019-01-15T20:44:14.515Z,27.70
2019-01-15T20:47:01.713Z,18.37
2019-01-15T20:49:39.598Z,22.33
2019-01-15T20:52:20.513Z,27.27
2019-01-15T20:54:55.547Z,22.73
2019-01-15T20:57:33.633Z,18.53
2019-01-15T21:00:14.782Z,28.40
2019-01-15T21:02:43.688Z,32.73
2019-01-15T21:05:12.610Z,18.63
2019-01-15T21:07:41.514Z,14.60
2019-01-15T21:10:31.668Z,18.80
2019-01-15T21:12:58.695Z,19.50
2019-01-15T21:15:34.141Z,26.90
2019-01-15T21:18:20.931Z,27.80
2019-01-15T21:20:58.609Z,21.63
2019-01-15T21:23:42.793Z,25.40
2019-01-15T21:26:20.515Z,16.23
2019-01-15T21:28:55.371Z,25.37
2019-01-15T21:31:27.219Z,17.53
2019-01-15T21:33:58.846Z,24.70
2019-01-15T21:36:30.480Z,21.10
2019-01-15T21:39:15.938Z,20.87
2019-01-15T21:41:57.146Z,27.40
2019-01-15T21:44:32.066Z,14.10
2019-01-15T21:47:17.368Z,19.33
2019-01-15T21:49:48.984Z,15.47
2019-01-15T21:52:34.467Z,20.80
2019-01-15T21:55:15.297Z,16.63
2019-01-15T21:58:02.438Z,23.53
2019-01-15T22:00:37.310Z,20.97
2019-01-15T22:03:14.996Z,20.37
2019-01-15T22:06:02.195Z,26.63
2019-01-15T22:08:49.227Z,23.63
2019-01-15T22:11:34.635Z,17.63
2019-01-15T22:14:03.547Z,18.30
2019-01-15T22:16:35.373Z,34.93
2019-01-15T22:19:07.006Z,21.43
2019-01-15T22:21:38.877Z,19.67
2019-01-15T22:24:20.056Z,18.03
2019-01-15T22:26:54.839Z,21.53
2019-01-15T22:29:32.415Z,15.97
2019-01-15T22:32:07.157Z,16.93
2019-01-15T22:34:44.939Z,24.40
2019-01-15T22:37:16.622Z,19.03
2019-01-15T22:39:45.507Z,15.53
2019-01-15T22:42:23.053Z,9.10
2019-01-15T22:44:51.958Z,18.40
2019-01-15T22:47:20.860Z,16.97
2019-01-15T22:50:07.020Z,13.67
2019-01-15T22:52:35.934Z,12.37
2019-01-15T22:55:24.790Z,19.00
2019-01-15T22:57:59.384Z,18.17
2019-01-15T23:00:45.916Z,16.60
2019-01-15T23:03:31.063Z,16.07
2019-01-15T23:06:05.769Z,14.63
2019-01-15T23:08:34.689Z,14.47
2019-01-15T23:11:06.666Z,23.43
2019-01-15T23:13:35.606Z,16.37
2019-01-15T23:16:07.524Z,15.33
2019-01-15T23:18:39.258Z,18.00
2019-01-15T23:21:24.439Z,20.33
2019-01-15T23:23:56.051Z,24.70
2019-01-15T23:26:37.251Z,21.33
2019-01-15T23:29:06.323Z,11.23
2019-01-15T23:31:35.215Z,12.97
2019-01-15T23:34:04.158Z,12.53
2019-01-15T23:36:47.846Z,13.07
2019-01-15T23:39:16.771Z,18.27
2019-01-15T23:41:45.684Z,12.80
2019-01-15T23:44:17.487Z,17.70
2019-01-15T23:46:46.403Z,15.30
2019-01-15T23:49:15.329Z,17.90
2019-01-15T23:51:47.232Z,23.97
2019-01-15T23:54:32.814Z,16.10
2019-01-15T23:57:18.306Z,17.37
